createdAt,value
2022-08-27T00:00:54.140Z,96149.09
2022-08-27T00:03:22.556Z,96148.63
2022-08-27T00:05:51.572Z,96153.31
2022-08-27T00:08:20.072Z,96148.09
2022-08-27T00:10:50.692Z,96147.31
2022-08-27T00:13:19.156Z,96141.63
2022-08-27T00:15:48.696Z,96142.25
2022-08-27T00:18:22.026Z,96146.31
2022-08-27T00:20:52.420Z,96145.34
2022-08-27T00:23:21.206Z,96141.44
2022-08-27T00:25:50.916Z,96136.41
2022-08-27T00:28:20.657Z,96136.41
2022-08-27T00:30:49.012Z,96147.94
2022-08-27T00:33:18.155Z,96153.28
2022-08-27T00:35:47.079Z,96155.75
2022-08-27T00:38:15.848Z,96153.00
2022-08-27T00:40:46.084Z,96143.88
2022-08-27T00:43:23.434Z,96146.97
2022-08-27T00:45:54.379Z,96147.75
2022-08-27T00:48:29.494Z,96155.69
2022-08-27T00:50:58.589Z,96159.47
2022-08-27T00:53:29.920Z,96143.72
2022-08-27T00:56:06.073Z,96143.53
2022-08-27T00:58:39.058Z,96132.34
2022-08-27T01:01:09.630Z,96140.13
2022-08-27T01:03:39.624Z,96137.53
2022-08-27T01:06:12.134Z,96144.97
2022-08-27T01:08:52.842Z,96140.28
2022-08-27T01:11:22.333Z,96141.72
2022-08-27T01:13:59.906Z,96141.41
2022-08-27T01:16:36.921Z,96142.91
2022-08-27T01:19:08.818Z,96147.41
2022-08-27T01:21:47.405Z,96141.91
2022-08-27T01:24:33.771Z,96142.22
2022-08-27T01:27:04.536Z,96150.00
2022-08-27T01:29:34.706Z,96146.41
2022-08-27T01:32:10.823Z,96151.94
2022-08-27T01:34:39.584Z,96138.47
2022-08-27T01:37:08.615Z,96155.03
2022-08-27T01:39:41.764Z,96154.53
2022-08-27T01:42:15.186Z,96172.53
2022-08-27T01:44:50.402Z,96181.78
2022-08-27T01:47:21.767Z,96171.53
2022-08-27T01:49:51.479Z,96184.16
2022-08-27T01:52:22.534Z,96184.81
2022-08-27T01:54:52.418Z,96183.97
2022-08-27T01:57:25.832Z,96189.09
2022-08-27T01:59:56.921Z,96180.00
2022-08-27T02:02:26.398Z,96183.22
2022-08-27T02:04:55.156Z,96179.38
2022-08-27T02:07:24.189Z,96180.47
2022-08-27T02:09:54.458Z,96177.69
2022-08-27T02:12:23.323Z,96181.25
2022-08-27T02:14:51.818Z,96180.75
2022-08-27T02:17:20.640Z,96173.31
2022-08-27T02:19:49.176Z,96179.00
2022-08-27T02:22:17.995Z,96177.22
2022-08-27T02:24:47.241Z,96159.22
2022-08-27T02:27:17.327Z,96172.69
2022-08-27T02:29:49.712Z,96173.31
2022-08-27T02:32:23.949Z,96174.44
2022-08-27T02:35:00.947Z,96177.16
2022-08-27T02:37:29.944Z,96181.28
2022-08-27T02:39:59.696Z,96179.63
2022-08-27T02:42:30.498Z,96194.91
2022-08-27T02:44:59.275Z,96191.19
2022-08-27T02:47:28.135Z,96198.34
2022-08-27T02:49:57.608Z,96197.00
2022-08-27T02:52:27.399Z,96196.41
2022-08-27T02:54:56.176Z,96196.19
2022-08-27T02:57:25.947Z,96189.88
2022-08-27T02:59:55.662Z,96193.94
2022-08-27T03:02:25.819Z,96188.13
2022-08-27T03:04:56.558Z,96186.63
2022-08-27T03:07:25.182Z,96185.94
2022-08-27T03:09:54.144Z,96187.41
2022-08-27T03:12:24.707Z,96192.91
2022-08-27T03:14:53.347Z,96189.34
2022-08-27T03:17:41.254Z,96182.72
2022-08-27T03:20:12.369Z,96181.69
2022-08-27T03:22:42.654Z,96184.66
2022-08-27T03:25:12.158Z,96173.13
2022-08-27T03:27:41.226Z,96176.69
2022-08-27T03:30:13.306Z,96181.69
2022-08-27T03:32:43.890Z,96175.69
2022-08-27T03:35:14.028Z,96169.69
2022-08-27T03:37:42.959Z,96181.69
2022-08-27T03:40:13.390Z,96180.06
2022-08-27T03:42:43.356Z,96181.69
2022-08-27T03:45:13.052Z,96178.44
2022-08-27T03:47:43.761Z,96181.22
2022-08-27T03:50:12.166Z,96168.25
2022-08-27T03:52:41.353Z,96171.50
2022-08-27T03:55:10.861Z,96176.19
2022-08-27T03:57:41.268Z,96175.69
2022-08-27T04:00:12.763Z,96176.03
2022-08-27T04:02:41.395Z,96171.94
2022-08-27T04:05:13.905Z,96168.31
2022-08-27T04:07:43.004Z,96166.69
2022-08-27T04:10:13.851Z,96177.88
2022-08-27T04:12:43.441Z,96164.44
2022-08-27T04:15:14.065Z,96161.19
2022-08-27T04:17:43.234Z,96166.38
2022-08-27T04:20:34.566Z,96171.06
2022-08-27T04:23:02.502Z,96158.75
2022-08-27T04:25:31.417Z,96157.13
2022-08-27T04:28:00.252Z,96160.19
2022-08-27T04:30:29.371Z,96167.31
2022-08-27T04:32:58.230Z,96164.16
2022-08-27T04:35:28.342Z,96161.53
2022-08-27T04:37:57.526Z,96166.72
2022-08-27T04:40:47.282Z,96168.34
2022-08-27T04:43:17.597Z,96164.47
2022-08-27T04:45:48.666Z,96164.16
2022-08-27T04:48:19.847Z,96160.91
2022-08-27T04:50:49.845Z,96168.03
2022-08-27T04:53:19.791Z,96171.00
2022-08-27T04:55:50.626Z,96168.22
2022-08-27T04:58:21.055Z,96170.50
2022-08-27T05:00:54.300Z,96172.41
2022-08-27T05:03:26.481Z,96183.81
2022-08-27T05:06:02.474Z,96178.31
2022-08-27T05:08:31.673Z,96185.47
2022-08-27T05:11:00.887Z,96181.59
2022-08-27T05:13:30.253Z,96177.91
2022-08-27T05:16:01.628Z,96185.06
2022-08-27T05:18:33.270Z,96186.81
2022-08-27T05:21:07.066Z,96189.56
2022-08-27T05:23:41.264Z,96183.69
2022-08-27T05:26:10.234Z,96182.50
2022-08-27T05:28:39.208Z,96183.41
2022-08-27T05:31:10.533Z,96179.78
2022-08-27T05:33:40.734Z,96186.41
2022-08-27T05:36:17.275Z,96181.34
2022-08-27T05:38:46.235Z,96178.19
2022-08-27T05:41:17.331Z,96184.72
2022-08-27T05:43:50.152Z,96184.28
2022-08-27T05:46:21.755Z,96182.53
2022-08-27T05:48:52.095Z,96187.28
2022-08-27T05:51:25.901Z,96182.50
2022-08-27T05:54:02.885Z,96171.84
2022-08-27T05:56:36.679Z,96186.91
2022-08-27T05:59:29.559Z,96178.66
2022-08-27T06:01:58.861Z,96178.38
2022-08-27T06:04:27.323Z,96178.56
2022-08-27T06:06:57.151Z,96188.81
2022-08-27T06:09:29.671Z,96184.44
2022-08-27T06:12:00.255Z,96190.97
2022-08-27T06:14:29.898Z,96194.22
2022-08-27T06:17:00.728Z,96190.16
2022-08-27T06:19:30.117Z,96191.78
2022-08-27T06:22:10.468Z,96189.94
2022-08-27T06:24:41.771Z,96192.09
2022-08-27T06:27:12.673Z,96191.47
2022-08-27T06:29:42.208Z,96182.09
2022-08-27T06:32:12.461Z,96184.19
2022-08-27T06:34:41.234Z,96181.97
2022-08-27T06:37:10.995Z,96193.97
2022-08-27T06:39:40.738Z,96191.72
2022-08-27T06:42:12.842Z,96197.09
2022-08-27T06:44:42.535Z,96190.66
2022-08-27T06:47:12.158Z,96194.03
2022-08-27T06:49:46.209Z,96191.63
2022-08-27T06:52:17.333Z,96192.97
2022-08-27T06:54:46.222Z,96193.00
2022-08-27T06:57:15.343Z,96186.22
2022-08-27T06:59:44.140Z,96195.19
2022-08-27T07:02:13.301Z,96193.56
2022-08-27T07:04:42.290Z,96201.63
2022-08-27T07:07:13.424Z,96191.75
2022-08-27T07:09:43.993Z,96200.00
2022-08-27T07:12:12.791Z,96201.31
2022-08-27T07:14:41.195Z,96202.13
2022-08-27T07:17:10.964Z,96202.44
2022-08-27T07:19:44.550Z,96202.00
2022-08-27T07:22:13.048Z,96205.19
2022-08-27T07:24:43.615Z,96217.50
2022-08-27T07:27:12.730Z,96212.53
2022-08-27T07:29:41.499Z,96212.69
2022-08-27T07:32:10.858Z,96216.41
2022-08-27T07:34:39.616Z,96223.88
2022-08-27T07:37:08.122Z,96219.97
2022-08-27T07:39:36.971Z,96229.88
2022-08-27T07:42:24.394Z,96225.78
2022-08-27T07:44:53.520Z,96227.69
2022-08-27T07:47:21.978Z,96223.50
2022-08-27T07:49:52.780Z,96238.09
2022-08-27T07:52:25.891Z,96231.63
2022-08-27T07:54:54.887Z,96236.78
2022-08-27T07:57:25.935Z,96236.19
2022-08-27T07:59:54.544Z,96236.19
2022-08-27T08:02:31.320Z,96242.03
2022-08-27T08:04:59.732Z,96243.47
2022-08-27T08:07:29.016Z,96247.25
2022-08-27T08:09:57.507Z,96249.50
2022-08-27T08:12:27.607Z,96243.34
2022-08-27T08:14:58.051Z,96246.00
2022-08-27T08:17:26.592Z,96248.09
2022-08-27T08:20:18.503Z,96256.56
2022-08-27T08:22:47.296Z,96237.72
2022-08-27T08:25:17.247Z,96253.00
2022-08-27T08:27:48.162Z,96259.50
2022-08-27T08:30:16.581Z,96256.97
2022-08-27T08:32:45.896Z,96257.44
2022-08-27T08:35:14.515Z,96265.59
2022-08-27T08:37:44.372Z,96262.66
2022-08-27T08:40:26.273Z,96270.50
2022-08-27T08:42:57.811Z,96276.53
2022-08-27T08:45:30.480Z,96284.47
2022-08-27T08:48:06.401Z,96278.00
2022-08-27T08:50:40.738Z,96284.00
2022-08-27T08:53:20.403Z,96283.88
2022-08-27T08:55:52.331Z,96288.41
2022-08-27T08:58:30.990Z,96291.81
2022-08-27T09:01:03.049Z,96285.44
2022-08-27T09:03:35.791Z,96289.34
2022-08-27T09:06:08.855Z,96290.75
2022-08-27T09:08:41.859Z,96283.78
2022-08-27T09:11:22.283Z,96284.63
2022-08-27T09:13:56.967Z,96297.00
2022-08-27T09:16:26.645Z,96288.41
2022-08-27T09:18:56.329Z,96282.75
2022-08-27T09:21:34.152Z,96289.44
2022-08-27T09:24:15.848Z,96282.78
2022-08-27T09:26:45.098Z,96285.09
2022-08-27T09:29:20.571Z,96290.31
2022-08-27T09:31:55.981Z,96286.63
2022-08-27T09:34:25.858Z,96284.41
2022-08-27T09:37:02.988Z,96282.47
2022-08-27T09:39:43.013Z,96283.28
2022-08-27T09:42:26.358Z,96285.41
2022-08-27T09:44:57.764Z,96283.44
2022-08-27T09:47:27.015Z,96286.22
2022-08-27T09:50:06.978Z,96291.75
2022-08-27T09:52:38.722Z,96285.56
2022-08-27T09:55:08.393Z,96290.38
2022-08-27T09:57:41.314Z,96286.91
2022-08-27T10:00:17.070Z,96284.66
2022-08-27T10:02:54.379Z,96285.56
2022-08-27T10:05:32.690Z,96278.88
2022-08-27T10:08:07.502Z,96285.56
2022-08-27T10:10:44.506Z,96282.78
2022-08-27T10:13:21.174Z,96277.31
2022-08-27T10:16:03.013Z,96272.91
2022-08-27T10:18:42.442Z,96265.94
2022-08-27T10:21:18.383Z,96275.16
2022-08-27T10:23:59.875Z,96263.72
2022-08-27T10:26:37.020Z,96261.63
2022-08-27T10:29:18.676Z,96261.97
2022-08-27T10:32:00.607Z,96262.38
2022-08-27T10:34:39.347Z,96256.75
2022-08-27T10:37:25.386Z,96258.78
2022-08-27T10:40:08.210Z,96268.00
2022-08-27T10:42:43.266Z,96262.91
2022-08-27T10:45:24.074Z,96259.88
2022-08-27T10:48:11.141Z,96252.84
2022-08-27T10:50:47.756Z,96262.97
2022-08-27T10:53:28.612Z,96245.97
2022-08-27T10:56:07.124Z,96245.00
2022-08-27T10:58:45.559Z,96246.75
2022-08-27T11:01:22.340Z,96256.63
2022-08-27T11:03:59.254Z,96257.31
2022-08-27T11:06:33.135Z,96248.50
2022-08-27T11:09:07.968Z,96249.84
2022-08-27T11:12:12.734Z,96255.69
2022-08-27T11:14:39.097Z,96250.31
2022-08-27T11:17:14.586Z,96253.44
2022-08-27T11:19:51.838Z,96242.69
2022-08-27T11:22:29.526Z,96246.34
2022-08-27T11:25:04.332Z,96249.25
2022-08-27T11:27:34.851Z,96240.53
2022-08-27T11:30:07.695Z,96240.81
2022-08-27T11:32:55.056Z,96237.75
2022-08-27T11:35:34.681Z,96236.97
2022-08-27T11:38:27.957Z,96234.38
2022-08-27T11:41:17.700Z,96228.06
2022-08-27T11:43:47.891Z,96230.44
2022-08-27T11:46:25.155Z,96228.78
2022-08-27T11:48:59.881Z,96221.81
2022-08-27T11:51:35.045Z,96221.56
2022-08-27T11:54:06.587Z,96227.06
2022-08-27T11:56:42.004Z,96224.78
2022-08-27T11:59:20.163Z,96219.84
2022-08-27T12:01:49.411Z,96213.47
2022-08-27T12:04:25.272Z,96218.41
2022-08-27T12:07:03.571Z,96209.19
2022-08-27T12:09:48.316Z,96207.19
2022-08-27T12:12:20.782Z,96203.91
2022-08-27T12:14:54.794Z,96195.63
2022-08-27T12:17:32.503Z,96200.44
2022-08-27T12:20:11.524Z,96204.66
2022-08-27T12:23:15.791Z,96207.03
2022-08-27T12:25:56.642Z,96200.00
2022-08-27T12:28:27.040Z,96198.38
2022-08-27T12:30:57.093Z,96185.13
2022-08-27T12:33:31.914Z,96195.13
2022-08-27T12:36:09.228Z,96186.97
2022-08-27T12:38:50.565Z,96190.47
2022-08-27T12:41:27.870Z,96183.94
2022-08-27T12:44:07.762Z,96189.50
2022-08-27T12:46:46.064Z,96183.75
2022-08-27T12:49:38.571Z,96182.09
2022-08-27T12:52:20.339Z,96188.31
2022-08-27T12:55:05.164Z,96174.00
2022-08-27T12:57:42.360Z,96178.56
2022-08-27T13:00:19.227Z,96165.50
2022-08-27T13:03:19.611Z,96176.16
2022-08-27T13:05:51.360Z,96176.06
2022-08-27T13:08:22.700Z,96167.28
2022-08-27T13:10:53.034Z,96175.84
2022-08-27T13:13:23.624Z,96167.81
2022-08-27T13:15:56.057Z,96163.56
2022-08-27T13:18:29.899Z,96166.78
2022-08-27T13:21:05.719Z,96166.41
2022-08-27T13:23:35.332Z,96163.81
2022-08-27T13:26:09.110Z,96157.50
2022-08-27T13:28:40.905Z,96160.66
2022-08-27T13:31:11.748Z,96161.09
2022-08-27T13:33:42.291Z,96149.53
2022-08-27T13:36:11.507Z,96152.00
2022-08-27T13:38:46.591Z,96154.75
2022-08-27T13:41:27.320Z,96156.84
2022-08-27T13:43:59.446Z,96166.44
2022-08-27T13:46:31.759Z,96159.53
2022-08-27T13:49:02.284Z,96164.94
2022-08-27T13:51:32.841Z,96155.75
2022-08-27T13:54:15.878Z,96147.56
2022-08-27T13:57:04.071Z,96159.16
2022-08-27T13:59:33.192Z,96158.56
2022-08-27T14:02:21.690Z,96159.72
2022-08-27T14:04:52.418Z,96154.28
2022-08-27T14:07:25.995Z,96161.84
2022-08-27T14:09:58.248Z,96168.31
2022-08-27T14:12:33.162Z,96173.25
2022-08-27T14:15:33.675Z,96167.75
2022-08-27T14:18:04.379Z,96155.19
2022-08-27T14:20:33.301Z,96162.25
2022-08-27T14:23:01.993Z,96169.44
2022-08-27T14:25:31.562Z,96166.41
2022-08-27T14:28:02.010Z,96162.88
2022-08-27T14:30:31.387Z,96170.53
2022-08-27T14:33:00.518Z,96153.59
2022-08-27T14:35:30.886Z,96159.22
2022-08-27T14:38:02.002Z,96154.28
2022-08-27T14:40:31.508Z,96145.91
2022-08-27T14:43:02.856Z,96142.75
2022-08-27T14:45:31.697Z,96151.81
2022-08-27T14:48:02.043Z,96150.09
2022-08-27T14:50:31.336Z,96152.44
2022-08-27T14:52:59.779Z,96146.53
2022-08-27T14:55:28.337Z,96147.91
2022-08-27T14:57:57.350Z,96140.50
2022-08-27T15:00:30.270Z,96140.59
2022-08-27T15:02:59.751Z,96134.59
2022-08-27T15:05:28.541Z,96137.09
2022-08-27T15:07:58.011Z,96127.34
2022-08-27T15:10:27.451Z,96131.56
2022-08-27T15:12:55.862Z,96132.16
2022-08-27T15:15:24.315Z,96136.63
2022-08-27T15:17:54.088Z,96135.69
2022-08-27T15:20:23.508Z,96136.25
2022-08-27T15:22:53.314Z,96138.25
2022-08-27T15:25:23.070Z,96134.75
2022-08-27T15:27:52.155Z,96127.19
2022-08-27T15:30:29.665Z,96131.47
2022-08-27T15:32:59.568Z,96137.50
2022-08-27T15:35:28.741Z,96137.94
2022-08-27T15:37:59.015Z,96139.00
2022-08-27T15:40:29.257Z,96139.84
2022-08-27T15:43:02.107Z,96138.34
2022-08-27T15:45:32.362Z,96135.59
2022-08-27T15:48:02.503Z,96136.06
2022-08-27T15:50:32.501Z,96139.03
2022-08-27T15:53:03.457Z,96141.16
2022-08-27T15:55:34.970Z,96132.84
2022-08-27T15:58:03.706Z,96131.31
2022-08-27T16:00:35.620Z,96138.34
2022-08-27T16:03:09.855Z,96128.25
2022-08-27T16:05:40.772Z,96132.28
2022-08-27T16:08:10.261Z,96141.88
2022-08-27T16:10:39.083Z,96143.38
2022-08-27T16:13:08.186Z,96129.84
2022-08-27T16:15:40.502Z,96146.13
2022-08-27T16:18:11.607Z,96141.84
2022-08-27T16:20:41.753Z,96132.97
2022-08-27T16:23:10.607Z,96137.22
2022-08-27T16:25:39.165Z,96133.75
2022-08-27T16:28:07.892Z,96132.91
2022-08-27T16:30:36.452Z,96135.38
2022-08-27T16:33:05.550Z,96135.56
2022-08-27T16:35:35.680Z,96132.38
2022-08-27T16:38:04.860Z,96127.13
2022-08-27T16:40:37.100Z,96136.16
2022-08-27T16:43:05.899Z,96134.25
2022-08-27T16:45:34.257Z,96137.84
2022-08-27T16:48:20.335Z,96139.50
2022-08-27T16:50:50.328Z,96137.03
2022-08-27T16:53:21.894Z,96146.41
2022-08-27T16:55:52.173Z,96140.09
2022-08-27T16:58:23.556Z,96137.94
2022-08-27T17:00:54.930Z,96141.34
2022-08-27T17:03:25.070Z,96137.97
2022-08-27T17:05:55.277Z,96134.59
2022-08-27T17:08:27.764Z,96142.25
2022-08-27T17:10:57.819Z,96143.88
2022-08-27T17:13:30.684Z,96149.00
2022-08-27T17:16:01.932Z,96151.44
2022-08-27T17:18:30.488Z,96156.50
2022-08-27T17:21:01.169Z,96154.16
2022-08-27T17:23:34.608Z,96157.25
2022-08-27T17:26:03.890Z,96160.44
2022-08-27T17:28:32.387Z,96167.56
2022-08-27T17:31:02.452Z,96166.44
2022-08-27T17:33:33.828Z,96166.81
2022-08-27T17:36:03.991Z,96170.78
2022-08-27T17:38:37.928Z,96167.91
2022-08-27T17:41:14.213Z,96168.28
2022-08-27T17:43:44.070Z,96172.22
2022-08-27T17:46:13.818Z,96173.97
2022-08-27T17:48:43.686Z,96169.63
2022-08-27T17:51:14.586Z,96183.63
2022-08-27T17:53:48.390Z,96186.88
2022-08-27T17:56:18.616Z,96194.47
2022-08-27T17:58:48.204Z,96197.34
2022-08-27T18:01:20.753Z,96195.81
2022-08-27T18:03:50.178Z,96196.38
2022-08-27T18:06:20.006Z,96189.63
2022-08-27T18:08:49.177Z,96192.59
2022-08-27T18:11:18.555Z,96198.16
2022-08-27T18:13:52.166Z,96201.59
2022-08-27T18:16:21.288Z,96205.25
2022-08-27T18:18:50.451Z,96208.25
2022-08-27T18:21:25.443Z,96201.31
2022-08-27T18:23:55.348Z,96217.13
2022-08-27T18:26:26.991Z,96211.09
2022-08-27T18:28:57.509Z,96216.50
2022-08-27T18:31:33.718Z,96215.91
2022-08-27T18:34:02.633Z,96215.78
2022-08-27T18:36:32.702Z,96208.31
2022-08-27T18:39:01.148Z,96217.31
2022-08-27T18:41:31.438Z,96222.25
2022-08-27T18:44:00.045Z,96220.00
2022-08-27T18:46:29.003Z,96228.66
2022-08-27T18:48:57.456Z,96236.66
2022-08-27T18:51:25.912Z,96235.38
2022-08-27T18:54:01.554Z,96239.94
2022-08-27T18:56:30.511Z,96249.94
2022-08-27T18:58:59.418Z,96243.31
2022-08-27T19:01:29.381Z,96251.78
2022-08-27T19:03:58.182Z,96253.63
2022-08-27T19:06:26.918Z,96254.94
2022-08-27T19:08:55.611Z,96260.81
2022-08-27T19:11:25.638Z,96265.53
2022-08-27T19:13:54.036Z,96257.41
2022-08-27T19:16:40.066Z,96267.22
2022-08-27T19:19:08.672Z,96258.44
2022-08-27T19:21:37.224Z,96264.66
2022-08-27T19:24:06.685Z,96271.94
2022-08-27T19:26:37.306Z,96264.31
2022-08-27T19:29:08.188Z,96271.00
2022-08-27T19:31:37.958Z,96271.19
2022-08-27T19:34:08.432Z,96271.69
2022-08-27T19:36:42.074Z,96271.53
2022-08-27T19:39:12.622Z,96272.19
2022-08-27T19:41:42.496Z,96273.66
2022-08-27T19:44:10.862Z,96273.84
2022-08-27T19:46:39.473Z,96275.66
2022-08-27T19:49:08.626Z,96276.75
2022-08-27T19:51:37.241Z,96272.38
2022-08-27T19:54:05.772Z,96270.75
2022-08-27T19:56:34.559Z,96272.56
2022-08-27T19:59:17.864Z,96276.44
2022-08-27T20:01:50.719Z,96266.41
2022-08-27T20:04:19.667Z,96271.75
2022-08-27T20:06:48.241Z,96274.38
2022-08-27T20:09:18.816Z,96262.00
2022-08-27T20:11:47.982Z,96258.13
2022-08-27T20:14:18.600Z,96264.78
2022-08-27T20:16:48.505Z,96256.81
2022-08-27T20:19:19.935Z,96255.53
2022-08-27T20:21:48.311Z,96263.31
2022-08-27T20:24:17.353Z,96258.91
2022-08-27T20:26:46.015Z,96267.06
2022-08-27T20:29:15.035Z,96266.06
2022-08-27T20:32:00.010Z,96257.44
2022-08-27T20:34:29.575Z,96263.16
2022-08-27T20:36:58.814Z,96253.06
2022-08-27T20:39:27.152Z,96255.69
2022-08-27T20:41:56.427Z,96251.94
2022-08-27T20:44:24.884Z,96255.84
2022-08-27T20:46:58.775Z,96256.66
2022-08-27T20:49:28.902Z,96262.31
2022-08-27T20:52:03.236Z,96256.47
2022-08-27T20:54:33.822Z,96256.00
2022-08-27T20:57:03.688Z,96254.38
2022-08-27T20:59:49.427Z,96248.03
2022-08-27T21:02:22.710Z,96244.13
2022-08-27T21:04:53.038Z,96246.56
2022-08-27T21:07:22.578Z,96259.09
2022-08-27T21:09:57.220Z,96246.41
2022-08-27T21:12:27.167Z,96245.91
2022-08-27T21:14:56.695Z,96244.13
2022-08-27T21:17:29.248Z,96242.53
2022-08-27T21:19:59.083Z,96259.22
2022-08-27T21:22:28.492Z,96250.94
2022-08-27T21:24:57.247Z,96253.22
2022-08-27T21:27:26.051Z,96257.28
2022-08-27T21:29:55.081Z,96251.75
2022-08-27T21:32:23.470Z,96267.19
2022-08-27T21:34:53.068Z,96266.69
2022-08-27T21:37:23.949Z,96264.09
2022-08-27T21:39:52.397Z,96261.81
2022-08-27T21:42:22.023Z,96265.56
2022-08-27T21:44:50.498Z,96261.97
2022-08-27T21:47:19.796Z,96266.38
2022-08-27T21:49:48.174Z,96269.13
2022-08-27T21:52:17.225Z,96267.00
2022-08-27T21:54:46.988Z,96267.66
2022-08-27T21:57:16.295Z,96268.13
2022-08-27T21:59:46.802Z,96265.69
2022-08-27T22:02:38.642Z,96273.31
2022-08-27T22:05:07.143Z,96281.44
2022-08-27T22:07:35.527Z,96279.34
2022-08-27T22:10:06.028Z,96276.59
2022-08-27T22:12:34.841Z,96277.84
2022-08-27T22:15:04.159Z,96282.22
2022-08-27T22:17:32.555Z,96282.22
2022-08-27T22:20:00.912Z,96286.59
2022-08-27T22:22:30.876Z,96282.22
2022-08-27T22:24:59.928Z,96286.28
2022-08-27T22:27:29.664Z,96283.84
2022-08-27T22:29:58.026Z,96287.53
2022-08-27T22:32:26.827Z,96284.31
2022-08-27T22:34:55.152Z,96294.03
2022-08-27T22:37:23.776Z,96288.84
2022-08-27T22:39:52.649Z,96293.84
2022-08-27T22:42:21.027Z,96283.47
2022-08-27T22:44:51.163Z,96290.41
2022-08-27T22:47:19.590Z,96287.81
2022-08-27T22:49:48.840Z,96288.16
2022-08-27T22:52:23.231Z,96281.31
2022-08-27T22:54:57.539Z,96279.22
2022-08-27T22:57:25.984Z,96286.97
2022-08-27T22:59:56.740Z,96280.34
2022-08-27T23:02:25.146Z,96290.56
2022-08-27T23:04:55.574Z,96295.22
2022-08-27T23:07:24.452Z,96289.91
2022-08-27T23:09:53.981Z,96286.66
2022-08-27T23:12:23.103Z,96290.22
2022-08-27T23:14:52.432Z,96289.44
2022-08-27T23:17:23.904Z,96284.06
2022-08-27T23:19:53.440Z,96278.69
2022-08-27T23:22:22.810Z,96281.44
2022-08-27T23:25:08.918Z,96277.06
2022-08-27T23:27:38.362Z,96276.25
2022-08-27T23:30:08.348Z,96279.81
2022-08-27T23:32:38.342Z,96283.09
2022-08-27T23:35:08.586Z,96288.91
2022-08-27T23:37:37.747Z,96284.84
2022-08-27T23:40:09.841Z,96282.09
2022-08-27T23:42:39.579Z,96285.19
2022-08-27T23:45:10.620Z,96279.66
2022-08-27T23:47:40.452Z,96284.38
2022-08-27T23:50:11.008Z,96276.41
2022-08-27T23:52:40.757Z,96278.66
2022-08-27T23:55:10.472Z,96277.38
2022-08-27T23:57:39.802Z,96279.31
